createdAt,value
2019-02-10T00:01:16.774Z,16.63
2019-02-10T00:06:36.600Z,15.97
2019-02-10T00:11:42.526Z,16.67
2019-02-10T00:16:48.630Z,23.03
2019-02-10T00:21:54.777Z,17.37
2019-02-10T00:27:00.760Z,22.27
2019-02-10T00:32:06.852Z,19.53
2019-02-10T00:37:13.077Z,23.30
2019-02-10T00:42:19.177Z,12.00
2019-02-10T00:47:25.159Z,7.07
2019-02-10T00:52:31.028Z,8.87
2019-02-10T00:57:36.921Z,4.73
2019-02-10T01:02:42.999Z,5.07
2019-02-10T01:07:49.228Z,8.53
2019-02-10T01:12:55.231Z,6.50
2019-02-10T01:18:01.335Z,4.70
2019-02-10T01:23:07.276Z,9.57
2019-02-10T01:28:13.435Z,8.17
2019-02-10T01:33:19.635Z,6.13
2019-02-10T01:38:25.711Z,11.43
2019-02-10T01:43:31.830Z,7.57
2019-02-10T01:48:37.855Z,8.27
2019-02-10T01:53:43.909Z,7.87
2019-02-10T01:58:49.999Z,4.77
2019-02-10T02:03:55.979Z,8.10
2019-02-10T02:09:01.890Z,7.33
2019-02-10T02:14:09.551Z,9.97
2019-02-10T02:19:15.733Z,7.10
2019-02-10T02:24:21.716Z,7.83
2019-02-10T02:29:27.606Z,5.07
2019-02-10T02:34:33.670Z,8.80
2019-02-10T02:39:39.634Z,9.13
2019-02-10T02:44:45.789Z,9.50
2019-02-10T02:49:51.976Z,7.67
2019-02-10T02:54:57.949Z,7.77
2019-02-10T03:00:24.658Z,9.20
2019-02-10T03:05:30.586Z,7.93
2019-02-10T03:10:36.572Z,8.37
2019-02-10T03:15:42.676Z,12.30
2019-02-10T03:20:48.698Z,7.07
2019-02-10T03:25:55.746Z,13.47
2019-02-10T03:31:01.853Z,8.33
2019-02-10T03:36:08.070Z,9.43
2019-02-10T03:41:14.138Z,11.23
2019-02-10T03:46:21.235Z,9.90
2019-02-10T03:51:26.926Z,13.13
2019-02-10T03:56:32.670Z,11.70
2019-02-10T04:01:57.419Z,6.87
2019-02-10T04:07:03.459Z,7.33
2019-02-10T04:12:09.505Z,10.97
2019-02-10T04:17:15.503Z,8.90
2019-02-10T04:22:21.582Z,7.80
2019-02-10T04:27:27.650Z,8.97
2019-02-10T04:32:33.694Z,7.70
2019-02-10T04:37:45.366Z,9.10
2019-02-10T04:42:47.300Z,13.20
2019-02-10T04:47:53.265Z,11.30
2019-02-10T04:52:58.978Z,9.27
2019-02-10T04:58:05.224Z,11.90
2019-02-10T05:03:11.285Z,8.93
2019-02-10T05:08:17.261Z,9.57
2019-02-10T05:13:23.073Z,7.27
2019-02-10T05:18:29.127Z,7.77
2019-02-10T05:23:35.091Z,9.90
2019-02-10T05:28:41.152Z,11.10
2019-02-10T05:33:47.338Z,12.57
2019-02-10T05:38:53.309Z,11.53
2019-02-10T05:43:59.267Z,9.03
2019-02-10T05:49:05.237Z,8.47
2019-02-10T05:54:11.205Z,9.43
2019-02-10T05:59:17.270Z,12.10
2019-02-10T06:04:23.346Z,17.90
2019-02-10T06:09:29.254Z,9.03
2019-02-10T06:14:35.314Z,15.43
2019-02-10T06:19:41.306Z,14.80
2019-02-10T06:24:47.462Z,21.03
2019-02-10T06:29:53.423Z,14.07
2019-02-10T06:35:01.906Z,22.67
2019-02-10T06:40:09.969Z,33.03
2019-02-10T06:45:15.997Z,26.37
2019-02-10T06:50:22.000Z,33.00
2019-02-10T06:55:28.201Z,35.10
2019-02-10T07:00:53.137Z,38.77
2019-02-10T07:05:59.220Z,44.03
2019-02-10T07:11:05.212Z,32.37
2019-02-10T07:16:36.338Z,15.53
2019-02-10T07:21:45.743Z,10.03
2019-02-10T07:27:01.814Z,13.53
2019-02-10T07:32:19.866Z,21.03
2019-02-10T07:37:49.648Z,12.57
2019-02-10T07:43:16.636Z,7.77
2019-02-10T07:48:40.255Z,9.13
2019-02-10T07:54:42.123Z,8.20
2019-02-10T08:00:29.961Z,9.07
2019-02-10T08:05:56.868Z,8.03
2019-02-10T08:11:37.561Z,10.30
2019-02-10T08:16:53.003Z,8.50
2019-02-10T08:22:35.657Z,8.03
2019-02-10T08:28:01.746Z,6.17
2019-02-10T08:33:37.573Z,6.97
2019-02-10T08:39:01.983Z,6.43
2019-02-10T08:44:42.348Z,8.47
2019-02-10T08:50:25.015Z,6.90
2019-02-10T08:55:31.123Z,7.83
2019-02-10T09:00:37.059Z,4.37
2019-02-10T09:05:43.144Z,7.23
2019-02-10T09:10:49.345Z,6.97
2019-02-10T09:15:55.429Z,6.40
2019-02-10T09:21:01.420Z,6.03
2019-02-10T09:26:08.621Z,7.10
2019-02-10T09:31:14.239Z,12.40
2019-02-10T09:36:19.934Z,5.03
2019-02-10T09:41:25.845Z,10.03
2019-02-10T09:46:31.995Z,14.87
2019-02-10T09:51:38.052Z,10.57
2019-02-10T09:56:44.249Z,7.83
2019-02-10T10:01:50.293Z,23.40
2019-02-10T10:06:57.466Z,12.20
2019-02-10T10:12:03.620Z,39.75
2019-02-10T10:17:09.684Z,3.90
2019-02-10T10:22:15.730Z,12.10
2019-02-10T10:27:23.042Z,9.57
2019-02-10T10:32:29.041Z,4.67
2019-02-10T10:37:34.700Z,7.20
2019-02-10T10:42:40.381Z,4.10
2019-02-10T10:47:46.082Z,5.80
2019-02-10T10:52:51.829Z,7.17
2019-02-10T10:57:57.456Z,7.77
2019-02-10T11:03:03.168Z,8.43
2019-02-10T11:08:08.950Z,6.73
2019-02-10T11:13:15.060Z,6.00
2019-02-10T11:18:20.886Z,4.37
2019-02-10T11:23:26.571Z,12.60
2019-02-10T11:28:32.217Z,39.60
2019-02-10T11:33:37.847Z,13.47
2019-02-10T11:38:43.691Z,15.23
2019-02-10T11:43:49.400Z,11.47
2019-02-10T11:48:55.015Z,11.13
2019-02-10T11:54:05.610Z,8.47
2019-02-10T11:59:11.292Z,15.80
2019-02-10T12:04:16.933Z,8.97
2019-02-10T12:09:22.556Z,5.87
2019-02-10T12:14:28.291Z,7.20
2019-02-10T12:19:34.030Z,7.70
2019-02-10T12:24:40.089Z,7.70
2019-02-10T12:29:47.020Z,4.70
2019-02-10T12:34:52.758Z,4.93
2019-02-10T12:39:59.867Z,5.27
2019-02-10T12:45:06.678Z,3.23
2019-02-10T12:50:13.300Z,3.50
2019-02-10T12:55:20.179Z,6.57
2019-02-10T13:00:25.999Z,6.97
2019-02-10T13:05:31.706Z,6.23
2019-02-10T13:10:37.325Z,4.73
2019-02-10T13:15:43.046Z,6.53
2019-02-10T13:20:48.650Z,4.53
2019-02-10T13:25:54.400Z,6.27
2019-02-10T13:31:00.122Z,5.23
2019-02-10T13:36:06.677Z,3.87
2019-02-10T13:41:12.648Z,5.07
2019-02-10T13:46:18.627Z,3.83
2019-02-10T13:51:24.321Z,3.87
2019-02-10T13:56:30.036Z,4.33
2019-02-10T14:01:35.795Z,4.03
2019-02-10T14:06:41.529Z,4.60
2019-02-10T14:11:47.310Z,3.20
2019-02-10T14:16:53.030Z,2.53
2019-02-10T14:21:58.660Z,3.70
2019-02-10T14:27:04.371Z,4.67
2019-02-10T14:32:10.022Z,5.33
2019-02-10T14:37:15.727Z,4.00
2019-02-10T14:42:21.390Z,5.43
2019-02-10T14:47:27.024Z,3.87
2019-02-10T14:52:32.742Z,5.13
2019-02-10T14:57:38.437Z,3.70
2019-02-10T15:02:44.069Z,4.57
2019-02-10T15:07:49.786Z,3.43
2019-02-10T15:12:55.518Z,4.00
2019-02-10T15:18:01.158Z,5.03
2019-02-10T15:23:25.964Z,4.87
2019-02-10T15:28:31.989Z,2.73
2019-02-10T15:33:37.822Z,4.30
2019-02-10T15:38:43.855Z,3.07
2019-02-10T15:43:49.798Z,2.20
2019-02-10T15:48:55.863Z,2.03
2019-02-10T15:54:01.859Z,2.67
2019-02-10T15:59:07.578Z,3.40
2019-02-10T16:04:13.437Z,2.43
2019-02-10T16:09:20.033Z,1.63
2019-02-10T16:14:26.001Z,1.47
2019-02-10T16:19:32.119Z,2.77
2019-02-10T16:24:37.764Z,2.03
2019-02-10T16:29:43.410Z,3.57
2019-02-10T16:34:49.099Z,2.67
2019-02-10T16:39:55.839Z,2.87
2019-02-10T16:45:01.536Z,2.80
2019-02-10T16:50:08.283Z,1.67
2019-02-10T16:55:14.642Z,3.33
2019-02-10T17:00:20.343Z,1.50
2019-02-10T17:05:26.050Z,4.47
2019-02-10T17:10:31.792Z,2.07
2019-02-10T17:15:37.509Z,1.73
2019-02-10T17:20:43.122Z,4.27
2019-02-10T17:25:48.870Z,3.33
2019-02-10T17:30:54.551Z,1.80
2019-02-10T17:36:00.198Z,2.17
2019-02-10T17:41:23.099Z,2.03
2019-02-10T17:46:29.006Z,1.87
2019-02-10T17:51:34.737Z,1.40
2019-02-10T17:56:40.589Z,1.70
2019-02-10T18:01:46.704Z,3.40
2019-02-10T18:06:52.703Z,2.53
2019-02-10T18:11:58.757Z,2.17
2019-02-10T18:17:21.118Z,1.63
2019-02-10T18:22:49.055Z,2.07
2019-02-10T18:28:17.250Z,1.30
2019-02-10T18:33:45.234Z,1.47
2019-02-10T18:39:13.705Z,2.60
2019-02-10T18:44:42.145Z,2.43
2019-02-10T18:50:05.823Z,2.70
2019-02-10T18:55:45.995Z,1.30
2019-02-10T19:01:04.057Z,1.60
2019-02-10T19:06:22.731Z,2.00
2019-02-10T19:11:47.648Z,1.20
2019-02-10T19:17:18.594Z,2.57
2019-02-10T19:22:43.610Z,3.00
2019-02-10T19:28:20.510Z,1.90
2019-02-10T19:33:57.477Z,1.47
2019-02-10T19:39:34.623Z,1.20
2019-02-10T19:44:59.627Z,1.33
2019-02-10T19:50:19.295Z,1.37
2019-02-10T19:55:47.112Z,3.07
2019-02-10T20:01:17.961Z,1.40
2019-02-10T20:06:38.578Z,1.07
2019-02-10T20:12:04.097Z,1.10
2019-02-10T20:17:33.322Z,1.10
2019-02-10T20:22:55.677Z,1.10
2019-02-10T20:28:20.384Z,4.37
2019-02-10T20:33:45.319Z,1.87
2019-02-10T20:39:01.968Z,1.13
2019-02-10T20:44:36.060Z,1.00
2019-02-10T20:50:01.389Z,1.07
2019-02-10T20:55:35.182Z,1.07
2019-02-10T21:01:00.244Z,1.13
2019-02-10T21:06:27.910Z,0.53
2019-02-10T21:12:02.045Z,1.30
2019-02-10T21:17:27.064Z,0.87
2019-02-10T21:22:49.114Z,1.77
2019-02-10T21:28:01.339Z,3.80
2019-02-10T21:33:41.502Z,4.20
2019-02-10T21:39:09.288Z,29.80
2019-02-10T21:44:23.554Z,2.57
2019-02-10T21:49:29.712Z,6.17
2019-02-10T21:54:35.702Z,13.27
2019-02-10T21:59:41.930Z,1.17
2019-02-10T22:04:47.928Z,4.13
2019-02-10T22:09:53.878Z,8.97
2019-02-10T22:14:59.828Z,1.23
2019-02-10T22:20:07.697Z,1.97
2019-02-10T22:25:13.721Z,0.37
2019-02-10T22:30:19.815Z,0.30
2019-02-10T22:35:25.703Z,0.90
2019-02-10T22:40:32.787Z,0.40
2019-02-10T22:45:38.761Z,0.37
2019-02-10T22:50:44.863Z,0.83
2019-02-10T22:55:51.589Z,0.70
2019-02-10T23:01:01.487Z,0.57
2019-02-10T23:06:07.552Z,0.50
2019-02-10T23:11:13.545Z,0.47
2019-02-10T23:16:19.502Z,0.90
2019-02-10T23:21:25.561Z,0.83
2019-02-10T23:26:31.571Z,0.20
2019-02-10T23:31:38.754Z,1.33
2019-02-10T23:36:44.354Z,0.40
2019-02-10T23:41:50.039Z,0.23
2019-02-10T23:46:55.999Z,0.77
2019-02-10T23:52:02.021Z,0.30
2019-02-10T23:57:08.096Z,0.30
